Time;durP1;ratioP1;P1;durP2;ratioP2;P2;SDS_P1;SDS_P2;PMS_P1;PMS_P2;Temp;Humidity;BMP_temperature;BMP_pressure;BME280_temperature;BME280_humidity;BME280_pressure;Samples;Min_cycle;Max_cycle;Signal;HPM_P1;HPM_P2
2022/04/09 00:00:41;;;;;;;0.80;0.50;;;;;;;-0.45;100.00;94979.19;2069045;28;20224;-66
2022/04/09 00:01:43;;;;;;;0.60;0.40;;;;;;;-0.45;100.00;94987.75;2069438;28;20253;-65
2022/04/09 00:02:44;;;;;;;0.60;0.50;;;;;;;-0.57;100.00;94990.09;2069554;28;20198;-65
2022/04/09 00:03:46;;;;;;;0.70;0.50;;;;;;;-0.63;100.00;95001.53;2070948;28;20786;-65
2022/04/09 00:04:47;;;;;;;0.60;0.40;;;;;;;-0.62;100.00;95009.16;2067964;28;20198;-65
2022/04/09 00:05:50;;;;;;;0.70;0.50;;;;;;;-0.60;100.00;95022.78;2068775;28;20707;-65
2022/04/09 00:06:51;;;;;;;0.70;0.50;;;;;;;-0.70;100.00;95026.72;2069594;28;20246;-65
2022/04/09 00:07:53;;;;;;;0.70;0.50;;;;;;;-0.66;100.00;95035.94;2068348;28;20208;-65
2022/04/09 00:08:54;;;;;;;0.60;0.50;;;;;;;-0.59;100.00;95049.31;2069496;28;20670;-65
2022/04/09 00:09:56;;;;;;;0.65;0.47;;;;;;;-0.75;100.00;95030.44;2068140;28;20534;-65
2022/04/09 00:10:57;;;;;;;0.70;0.50;;;;;;;-0.69;100.00;95042.97;2066947;28;20215;-64
2022/04/09 00:11:59;;;;;;;0.70;0.50;;;;;;;-0.65;100.00;95065.91;2068467;28;20203;-65
2022/04/09 00:13:00;;;;;;;0.80;0.63;;;;;;;-0.74;100.00;95070.66;2070730;28;20196;-64
2022/04/09 00:14:02;;;;;;;0.70;0.50;;;;;;;-0.80;100.00;95071.78;2071539;28;20208;-64
2022/04/09 00:15:05;;;;;;;0.73;0.60;;;;;;;-0.80;100.00;95079.50;2066420;28;20199;-64
2022/04/09 00:16:06;;;;;;;0.80;0.80;;;;;;;-0.69;100.00;95084.94;2069039;28;20206;-64
2022/04/09 00:17:09;;;;;;;0.80;0.60;;;;;;;-0.74;100.00;95076.63;2070416;28;20241;-64
2022/04/09 00:18:14;;;;;;;0.70;0.60;;;;;;;-0.72;100.00;95097.13;2068766;28;20200;-64
2022/04/09 00:19:16;;;;;;;0.70;0.60;;;;;;;-0.72;100.00;95105.69;2068675;28;20195;-64
2022/04/09 00:20:19;;;;;;;0.85;0.70;;;;;;;-0.78;100.00;95103.41;2068199;28;20217;-64
2022/04/09 00:21:21;;;;;;;1.00;0.60;;;;;;;-0.57;100.00;95124.66;2077191;28;20207;-64
2022/04/09 00:22:22;;;;;;;0.70;0.57;;;;;;;-0.68;100.00;95114.91;2076635;28;20198;-65
2022/04/09 00:23:24;;;;;;;0.70;0.50;;;;;;;-0.58;100.00;95119.63;2071252;28;20207;-64
2022/04/09 00:24:25;;;;;;;0.70;0.60;;;;;;;-0.60;100.00;95132.53;2071429;28;20194;-64
2022/04/09 00:25:27;;;;;;;1.05;0.60;;;;;;;-0.54;100.00;95137.38;2067471;28;20227;-64
2022/04/09 00:26:28;;;;;;;0.65;0.50;;;;;;;-0.60;100.00;95132.53;2067209;28;20606;-64
2022/04/09 00:27:30;;;;;;;1.02;0.55;;;;;;;-0.72;100.00;95120.28;2067921;28;20203;-64
2022/04/09 00:28:31;;;;;;;0.70;0.50;;;;;;;-0.79;100.00;95112.00;2068993;28;20198;-64
2022/04/09 00:29:33;;;;;;;0.70;0.50;;;;;;;-0.62;100.00;95132.59;2075928;28;20256;-64
2022/04/09 00:30:34;;;;;;;0.70;0.50;;;;;;;-0.67;100.00;95134.56;2075644;28;20287;-65
2022/04/09 00:31:36;;;;;;;0.80;0.60;;;;;;;-0.53;100.00;95140.78;2069908;28;20582;-65
2022/04/09 00:32:38;;;;;;;0.60;0.50;;;;;;;-0.60;100.00;95140.25;2070033;28;20209;-64
2022/04/09 00:33:39;;;;;;;1.00;0.68;;;;;;;-0.60;100.00;95151.38;2068665;28;20207;-65
2022/04/09 00:34:41;;;;;;;1.15;0.60;;;;;;;-0.62;100.00;95145.47;2071043;28;20681;-65
2022/04/09 00:35:42;;;;;;;0.90;0.60;;;;;;;-0.67;100.00;95144.00;2070756;28;20222;-65
2022/04/09 00:36:44;;;;;;;1.13;0.70;;;;;;;-0.75;100.00;95139.22;2068322;28;20201;-65
2022/04/09 00:37:47;;;;;;;2.13;0.60;;;;;;;-0.64;100.00;95147.28;2067240;28;20214;-65
2022/04/09 00:38:48;;;;;;;1.40;0.60;;;;;;;-0.62;100.00;95148.03;2068787;28;20199;-65
2022/04/09 00:39:50;;;;;;;1.00;0.90;;;;;;;-0.67;100.00;95142.28;2068805;28;20303;-65
2022/04/09 00:40:51;;;;;;;0.75;0.60;;;;;;;-0.67;100.00;95139.69;2068536;28;20223;-65
2022/04/09 00:41:53;;;;;;;0.93;0.80;;;;;;;-0.71;100.00;95137.34;2068890;28;20732;-65
2022/04/09 00:42:55;;;;;;;0.77;0.60;;;;;;;-0.62;100.00;95157.50;2068417;28;20198;-65
2022/04/09 00:43:56;;;;;;;0.80;0.60;;;;;;;-0.57;100.00;95164.97;2069214;28;20200;-65
2022/04/09 00:44:58;;;;;;;0.80;0.60;;;;;;;-0.58;100.00;95171.06;2067234;28;20724;-65
2022/04/09 00:45:59;;;;;;;0.80;0.60;;;;;;;-0.56;100.00;95176.94;2066615;28;20206;-65
2022/04/09 00:47:01;;;;;;;1.00;0.60;;;;;;;-0.52;100.00;95183.63;2067965;28;20217;-65
2022/04/09 00:48:05;;;;;;;1.00;0.60;;;;;;;-0.56;100.00;95166.66;2069797;28;20222;-65
2022/04/09 00:49:07;;;;;;;1.88;0.70;;;;;;;-0.49;100.00;95193.75;2067191;28;20671;-65
2022/04/09 00:50:10;;;;;;;0.80;0.60;;;;;;;-0.48;100.00;95201.38;2066508;28;20890;-65
2022/04/09 00:51:12;;;;;;;1.10;0.70;;;;;;;-0.54;100.00;95198.28;2066486;28;20632;-65
2022/04/09 00:52:16;;;;;;;1.33;0.68;;;;;;;-0.51;100.00;95210.97;2066177;28;20213;-65
2022/04/09 00:53:18;;;;;;;0.80;0.60;;;;;;;-0.70;100.00;95196.44;2067923;28;20202;-65
2022/04/09 00:54:22;;;;;;;0.80;0.70;;;;;;;-0.52;100.00;95220.44;2068539;28;20216;-64
2022/04/09 00:56:51;;;;;;;0.85;0.60;;;;;;;-0.60;100.00;95217.41;2070247;28;20204;-65
2022/04/09 00:57:53;;;;;;;1.10;0.68;;;;;;;-0.50;100.00;95239.22;2068704;28;20235;-64
2022/04/09 00:58:55;;;;;;;0.80;0.70;;;;;;;-0.47;100.00;95244.22;2069794;28;20198;-65
2022/04/09 00:59:58;;;;;;;1.38;0.70;;;;;;;-0.38;100.00;95255.81;2069309;28;20208;-65
2022/04/09 01:01:01;;;;;;;1.10;0.90;;;;;;;-0.42;100.00;95246.56;2066340;28;20252;-66
2022/04/09 01:02:04;;;;;;;1.55;1.00;;;;;;;-0.47;100.00;95258.81;2068983;28;20205;-66
2022/04/09 01:03:06;;;;;;;1.10;0.90;;;;;;;-0.43;100.00;95258.59;2068321;28;20281;-66
2022/04/09 01:04:11;;;;;;;1.40;0.80;;;;;;;-0.56;100.00;95226.66;2069320;28;20202;-66
2022/04/09 01:05:13;;;;;;;2.10;1.25;;;;;;;-0.36;100.00;95269.44;2067508;28;20792;-67
2022/04/09 01:06:15;;;;;;;0.70;0.65;;;;;;;-0.35;100.00;95273.69;2069400;28;20236;-66
2022/04/09 01:07:17;;;;;;;1.00;0.90;;;;;;;-0.56;100.00;95247.22;2066346;28;20693;-67
2022/04/09 01:08:18;;;;;;;0.90;0.70;;;;;;;-0.45;100.00;95264.72;2067098;28;20210;-67
2022/04/09 01:09:20;;;;;;;0.80;0.70;;;;;;;-0.34;100.00;95290.78;2066749;28;20252;-67
2022/04/09 01:10:22;;;;;;;1.35;0.80;;;;;;;-0.36;100.00;95295.16;2066738;28;20237;-66
2022/04/09 01:11:23;;;;;;;1.30;0.80;;;;;;;-0.40;100.00;95281.59;2069108;28;20204;-66
2022/04/09 01:12:25;;;;;;;5.53;0.77;;;;;;;-0.71;100.00;95245.34;2070289;28;20209;-66
2022/04/09 01:13:26;;;;;;;0.82;0.70;;;;;;;-0.44;100.00;95302.41;2068924;28;20202;-67
2022/04/09 01:14:29;;;;;;;1.20;0.80;;;;;;;-0.47;100.00;95284.53;2070493;28;20207;-67
2022/04/09 01:15:30;;;;;;;0.93;0.80;;;;;;;-0.58;100.00;95261.88;2062411;28;20239;-67
2022/04/09 01:16:32;;;;;;;0.90;0.70;;;;;;;-0.42;100.00;95293.69;2070831;28;20204;-67
2022/04/09 01:17:37;;;;;;;0.85;0.68;;;;;;;-0.43;100.00;95293.81;2067878;28;20250;-67
2022/04/09 01:18:41;;;;;;;0.80;0.77;;;;;;;-0.54;100.00;95283.16;2069799;28;20611;-66
2022/04/09 01:19:42;;;;;;;1.00;0.90;;;;;;;-0.46;100.00;95287.03;2069853;28;20535;-66
2022/04/09 01:20:44;;;;;;;1.08;0.90;;;;;;;-0.38;100.00;95299.53;2066788;28;20688;-67
2022/04/09 01:21:47;;;;;;;1.10;0.90;;;;;;;-0.44;100.00;95277.50;2067580;28;20186;-67
2022/04/09 01:22:49;;;;;;;1.02;0.90;;;;;;;-0.57;100.00;95255.81;2067788;28;20212;-67
2022/04/09 01:23:51;;;;;;;0.80;0.80;;;;;;;-0.50;100.00;95279.53;2069429;28;20206;-66
2022/04/09 01:24:52;;;;;;;1.00;0.90;;;;;;;-0.52;100.00;95289.06;2068399;28;20202;-65
2022/04/09 01:25:56;;;;;;;1.45;1.35;;;;;;;-0.45;100.00;95309.28;2066624;28;20205;-66
2022/04/09 01:26:58;;;;;;;2.20;1.30;;;;;;;-0.42;100.00;95309.13;2068361;28;20203;-67
2022/04/09 01:27:59;;;;;;;1.35;1.25;;;;;;;-0.46;100.00;95309.34;2069615;28;20560;-66
2022/04/09 01:29:01;;;;;;;1.20;0.88;;;;;;;-0.54;100.00;95314.84;2067559;28;20206;-66
2022/04/09 01:30:03;;;;;;;1.23;0.98;;;;;;;-0.60;100.00;95300.53;2068013;28;20523;-66
2022/04/09 01:31:04;;;;;;;2.22;1.33;;;;;;;-0.37;100.00;95337.25;2068247;28;20668;-66
2022/04/09 01:32:07;;;;;;;1.10;1.00;;;;;;;-0.39;100.00;95333.91;2068239;28;20201;-66
2022/04/09 01:33:14;;;;;;;6.07;1.02;;;;;;;-0.28;100.00;95330.84;2067194;28;20208;-66
2022/04/09 01:34:16;;;;;;;1.27;0.95;;;;;;;-0.35;100.00;95343.16;2068987;28;20198;-66
2022/04/09 01:35:17;;;;;;;1.70;0.98;;;;;;;-0.42;100.00;95339.19;2065199;28;20221;-65
2022/04/09 01:36:19;;;;;;;0.90;0.80;;;;;;;-0.43;100.00;95335.78;2068781;28;20233;-65
2022/04/09 01:37:20;;;;;;;1.15;1.05;;;;;;;-0.43;100.00;95340.09;2068637;28;20221;-65
2022/04/09 01:38:22;;;;;;;2.00;1.00;;;;;;;-0.34;100.00;95356.84;2068726;28;20250;-65
2022/04/09 01:39:23;;;;;;;1.48;1.38;;;;;;;-0.36;100.00;95353.50;2068019;28;20208;-65
2022/04/09 01:40:25;;;;;;;2.92;1.10;;;;;;;-0.41;100.00;95351.97;2067858;28;20240;-65
2022/04/09 01:41:26;;;;;;;1.20;1.10;;;;;;;-0.51;100.00;95337.88;2067069;28;20194;-65
2022/04/09 01:42:27;;;;;;;1.10;1.00;;;;;;;-0.35;100.00;95366.31;2077881;28;20704;-64
2022/04/09 01:43:29;;;;;;;1.75;1.17;;;;;;;-0.36;100.00;95356.91;2078361;28;20856;-64
2022/04/09 01:44:31;;;;;;;1.63;1.02;;;;;;;-0.62;100.00;95325.47;2069068;28;20217;-65
2022/04/09 01:45:32;;;;;;;1.80;1.33;;;;;;;-0.49;100.00;95359.22;2065274;28;20247;-65
2022/04/09 01:46:34;;;;;;;2.17;1.67;;;;;;;-0.52;100.00;95363.66;2066858;28;20229;-65
2022/04/09 01:47:40;;;;;;;2.65;1.90;;;;;;;-0.46;100.00;95373.66;2068924;28;20228;-64
2022/04/09 01:48:43;;;;;;;1.83;1.73;;;;;;;-0.51;100.00;95370.44;2068682;28;20689;-64
2022/04/09 01:49:44;;;;;;;1.30;1.20;;;;;;;-0.49;100.00;95378.94;2068946;28;20198;-64
2022/04/09 01:50:46;;;;;;;2.50;1.70;;;;;;;-0.61;100.00;95360.59;2067458;28;20228;-64
2022/04/09 01:51:49;;;;;;;1.98;1.77;;;;;;;-0.45;100.00;95377.88;2068811;28;20209;-64
2022/04/09 01:52:55;;;;;;;2.42;1.98;;;;;;;-0.45;100.00;95383.03;2068736;28;20206;-64
2022/04/09 01:53:56;;;;;;;2.42;2.03;;;;;;;-0.43;100.00;95389.81;2065704;28;20194;-63
2022/04/09 01:54:57;;;;;;;4.35;2.60;;;;;;;-0.57;100.00;95381.03;2066137;28;20837;-63
2022/04/09 01:55:59;;;;;;;4.95;2.13;;;;;;;-0.37;100.00;95411.00;2067941;28;20192;-63
2022/04/09 01:57:01;;;;;;;2.20;2.00;;;;;;;-0.45;100.00;95403.63;2069379;28;20209;-63
2022/04/09 01:58:02;;;;;;;2.88;2.13;;;;;;;-0.46;100.00;95405.38;2069162;28;20202;-63
2022/04/09 01:59:03;;;;;;;1.85;1.65;;;;;;;-0.42;100.00;95400.91;2067045;28;20256;-63
2022/04/09 02:00:13;;;;;;;1.60;1.50;;;;;;;-0.62;100.00;95394.09;2067165;28;20201;-63
2022/04/09 02:01:18;;;;;;;2.38;1.77;;;;;;;-0.47;100.00;95413.13;2068239;28;20201;-63
2022/04/09 02:02:20;;;;;;;2.20;1.85;;;;;;;-0.50;100.00;95418.44;2067417;28;20200;-63
2022/04/09 02:03:21;;;;;;;2.83;1.52;;;;;;;-0.52;100.00;95417.66;2066436;28;20209;-63
2022/04/09 02:04:23;;;;;;;1.75;1.50;;;;;;;-0.50;100.00;95418.44;2068761;28;20216;-63
2022/04/09 02:05:25;;;;;;;2.47;1.60;;;;;;;-0.40;100.00;95427.41;2065233;28;20251;-63
2022/04/09 02:06:28;;;;;;;3.35;1.50;;;;;;;-0.38;100.00;95435.91;2065046;28;20202;-63
2022/04/09 02:07:29;;;;;;;3.45;1.65;;;;;;;-0.41;100.00;95434.31;2064802;28;20673;-63
2022/04/09 02:08:32;;;;;;;1.73;1.63;;;;;;;-0.50;100.00;95423.59;2064832;28;20206;-63
2022/04/09 02:09:33;;;;;;;2.00;1.80;;;;;;;-0.50;100.00;95426.16;2070194;28;20198;-63
2022/04/09 02:10:37;;;;;;;1.67;1.45;;;;;;;-0.36;100.00;95433.25;2070216;28;20295;-63
2022/04/09 02:11:42;;;;;;;3.17;1.52;;;;;;;-0.45;100.00;95432.78;2067831;28;20612;-63
2022/04/09 02:12:44;;;;;;;1.95;1.75;;;;;;;-0.44;100.00;95437.00;2076799;28;20209;-63
2022/04/09 02:13:46;;;;;;;1.73;1.42;;;;;;;-0.43;100.00;95433.53;2074967;28;20555;-64
2022/04/09 02:14:47;;;;;;;5.10;2.30;;;;;;;-0.40;100.00;95442.84;2067724;28;20198;-63
2022/04/09 02:15:49;;;;;;;1.77;1.45;;;;;;;-0.39;100.00;95449.69;2067054;28;20222;-62
2022/04/09 02:16:51;;;;;;;1.63;1.40;;;;;;;-0.42;100.00;95447.22;2067859;28;20201;-63
2022/04/09 02:17:52;;;;;;;3.20;1.88;;;;;;;-0.49;100.00;95443.25;2069853;28;20212;-63
2022/04/09 02:18:54;;;;;;;1.60;1.50;;;;;;;-0.37;100.00;95458.16;2069952;28;20218;-62
2022/04/09 02:19:55;;;;;;;1.30;1.20;;;;;;;-0.42;100.00;95460.91;2068841;28;20607;-62
2022/04/09 02:20:56;;;;;;;1.50;1.33;;;;;;;-0.46;100.00;95456.00;2067887;28;20689;-62
2022/04/09 02:21:58;;;;;;;3.45;1.40;;;;;;;-0.38;100.00;95459.06;2068207;28;20203;-62
2022/04/09 02:22:59;;;;;;;1.67;1.50;;;;;;;-0.42;100.00;95465.25;2067371;28;20919;-62
2022/04/09 02:24:01;;;;;;;3.10;1.35;;;;;;;-0.49;100.00;95466.38;2068072;28;20194;-62
2022/04/09 02:25:04;;;;;;;2.17;1.63;;;;;;;-0.38;100.00;95471.09;2076474;28;20205;-62
2022/04/09 02:26:05;;;;;;;2.03;1.83;;;;;;;-0.36;100.00;95482.97;2077464;28;20634;-62
2022/04/09 02:27:07;;;;;;;6.18;1.75;;;;;;;-0.37;100.00;95476.19;2071005;28;20207;-62
2022/04/09 02:28:08;;;;;;;2.05;1.85;;;;;;;-0.43;100.00;95473.88;2069885;28;20220;-62
2022/04/09 02:29:10;;;;;;;1.65;1.52;;;;;;;-0.40;100.00;95486.59;2067241;28;20215;-63
2022/04/09 02:30:12;;;;;;;1.38;1.27;;;;;;;-0.62;100.00;95466.94;2066585;28;20205;-63
2022/04/09 02:31:17;;;;;;;3.35;1.50;;;;;;;-0.46;100.00;95492.81;2078095;28;20558;-63
2022/04/09 02:32:18;;;;;;;2.10;1.70;;;;;;;-0.45;100.00;95497.09;2076581;28;20227;-63
2022/04/09 02:33:20;;;;;;;2.75;1.95;;;;;;;-0.46;100.00;95499.72;2067367;28;20197;-63
2022/04/09 02:34:22;;;;;;;2.13;1.90;;;;;;;-0.53;100.00;95488.00;2070154;28;20201;-63
2022/04/09 02:35:25;;;;;;;3.38;1.83;;;;;;;-0.40;100.00;95512.31;2070035;28;20639;-63
2022/04/09 02:36:28;;;;;;;3.65;1.83;;;;;;;-0.41;100.00;95508.09;2071345;28;20642;-64
2022/04/09 02:37:30;;;;;;;2.25;1.83;;;;;;;-0.58;100.00;95488.22;2070878;28;20241;-64
2022/04/09 02:38:31;;;;;;;1.92;1.65;;;;;;;-0.37;100.00;95519.91;2067126;28;20198;-64
2022/04/09 02:39:33;;;;;;;2.15;1.95;;;;;;;-0.46;100.00;95521.13;2067563;28;20668;-64
2022/04/09 02:40:35;;;;;;;1.80;1.70;;;;;;;-0.50;100.00;95508.47;2066965;28;20225;-65
2022/04/09 02:41:37;;;;;;;2.33;2.03;;;;;;;-0.46;100.00;95522.88;2071584;28;20615;-64
2022/04/09 02:42:40;;;;;;;2.65;1.92;;;;;;;-0.61;100.00;95491.75;2071691;28;20866;-65
2022/04/09 02:43:43;;;;;;;1.92;1.58;;;;;;;-0.43;100.00;95517.59;2068331;28;20201;-64
2022/04/09 02:44:45;;;;;;;2.13;1.92;;;;;;;-0.33;100.00;95531.75;2080010;28;20289;-65
2022/04/09 02:45:47;;;;;;;2.00;1.73;;;;;;;-0.45;100.00;95525.38;2079441;28;20220;-64
2022/04/09 02:46:48;;;;;;;2.50;2.15;;;;;;;-0.38;100.00;95541.38;2069283;28;20614;-64
2022/04/09 02:47:58;;;;;;;2.30;1.70;;;;;;;-0.46;100.00;95535.72;2070435;28;20242;-62
2022/04/09 02:49:00;;;;;;;3.05;1.95;;;;;;;-0.43;100.00;95553.63;2070642;28;20585;-64
2022/04/09 02:50:04;;;;;;;1.73;1.40;;;;;;;-0.46;100.00;95551.16;2078000;28;20200;-64
2022/04/09 02:51:06;;;;;;;1.70;1.60;;;;;;;-0.48;100.00;95552.97;2080026;28;20200;-64
2022/04/09 02:52:08;;;;;;;2.20;2.00;;;;;;;-0.56;100.00;95547.31;2068887;28;20196;-64
2022/04/09 02:53:11;;;;;;;2.38;1.83;;;;;;;-0.43;100.00;95558.78;2069742;28;20225;-64
2022/04/09 02:54:16;;;;;;;2.00;1.52;;;;;;;-0.47;100.00;95562.34;2067834;28;20195;-64
2022/04/09 02:55:17;;;;;;;2.35;1.98;;;;;;;-0.50;100.00;95565.06;2069151;28;20220;-64
2022/04/09 02:56:19;;;;;;;2.17;1.88;;;;;;;-0.48;100.00;95568.41;2069903;28;20195;-63
2022/04/09 02:57:20;;;;;;;2.55;1.67;;;;;;;-0.49;100.00;95569.28;2068902;28;20316;-64
2022/04/09 02:58:22;;;;;;;2.20;2.00;;;;;;;-0.68;100.00;95546.09;2068864;28;20201;-63
2022/04/09 02:59:23;;;;;;;2.25;2.00;;;;;;;-0.54;100.00;95574.63;2076445;28;20203;-63
2022/04/09 03:00:25;;;;;;;4.78;2.33;;;;;;;-0.58;100.00;95567.94;2076841;28;20218;-63
2022/04/09 03:01:32;;;;;;;3.30;2.17;;;;;;;-0.56;100.00;95575.59;2069545;28;20207;-63
2022/04/09 03:02:36;;;;;;;3.05;2.25;;;;;;;-0.50;100.00;95580.50;2068877;28;20200;-63
2022/04/09 03:03:38;;;;;;;3.83;2.33;;;;;;;-0.53;100.00;95578.91;2067667;28;20215;-63
2022/04/09 03:04:39;;;;;;;2.90;2.33;;;;;;;-0.52;100.00;95583.13;2070262;28;20209;-64
2022/04/09 03:05:41;;;;;;;4.68;3.10;;;;;;;-0.63;100.00;95565.56;2066039;28;20223;-63
2022/04/09 03:06:42;;;;;;;3.15;2.50;;;;;;;-0.45;100.00;95594.84;2067894;28;20213;-63
2022/04/09 03:07:43;;;;;;;10.32;2.83;;;;;;;-0.43;100.00;95594.78;2069102;28;20206;-63
2022/04/09 03:08:45;;;;;;;7.40;2.90;;;;;;;-0.42;100.00;95599.84;2068972;28;20204;-63
2022/04/09 03:09:46;;;;;;;3.20;2.58;;;;;;;-0.43;100.00;95599.94;2070773;28;20679;-63
2022/04/09 03:10:48;;;;;;;4.90;2.97;;;;;;;-0.46;100.00;95593.16;2077331;28;20219;-63
2022/04/09 03:11:49;;;;;;;7.53;3.60;;;;;;;-0.56;100.00;95578.19;2076630;28;20199;-62
2022/04/09 03:12:51;;;;;;;7.00;3.60;;;;;;;-0.38;100.00;95607.44;2069389;28;20205;-63
2022/04/09 03:13:53;;;;;;;4.47;3.40;;;;;;;-0.33;100.00;95600.34;2069295;28;20649;-64
2022/04/09 03:14:54;;;;;;;5.18;3.78;;;;;;;-0.34;100.00;95602.09;2070102;28;20198;-62
2022/04/09 03:15:56;;;;;;;5.90;3.90;;;;;;;-0.32;100.00;95610.59;2071260;28;20270;-63
2022/04/09 03:16:57;;;;;;;6.25;4.38;;;;;;;-0.29;100.00;95609.66;2071519;28;20678;-63
2022/04/09 03:17:59;;;;;;;10.27;4.35;;;;;;;-0.44;100.00;95599.06;2066613;28;20667;-63
2022/04/09 03:19:00;;;;;;;7.40;4.15;;;;;;;-0.30;100.00;95615.69;2067080;28;20200;-63
2022/04/09 03:20:03;;;;;;;8.43;5.03;;;;;;;-0.32;100.00;95617.47;2068257;28;20670;-63
2022/04/09 03:21:05;;;;;;;9.07;5.47;;;;;;;-0.29;100.00;95625.91;2068591;28;20206;-63
2022/04/09 03:22:07;;;;;;;6.53;4.70;;;;;;;-0.28;100.00;95627.56;2069030;28;20198;-63
2022/04/09 03:23:08;;;;;;;10.07;5.20;;;;;;;-0.30;100.00;95626.81;2066967;28;20204;-62
2022/04/09 03:24:10;;;;;;;8.50;5.80;;;;;;;-0.27;100.00;95631.84;2070124;28;20326;-62
2022/04/09 03:25:13;;;;;;;12.57;6.53;;;;;;;-0.33;100.00;95629.53;2071283;28;20201;-62
2022/04/09 03:26:14;;;;;;;7.50;5.07;;;;;;;-0.36;100.00;95627.06;2070506;28;20228;-62
2022/04/09 03:27:16;;;;;;;7.80;4.93;;;;;;;-0.35;100.00;95620.16;2067416;28;20670;-62
2022/04/09 03:28:18;;;;;;;9.77;6.40;;;;;;;-0.27;100.00;95639.56;2066180;28;20198;-62
2022/04/09 03:29:19;;;;;;;16.52;6.95;;;;;;;-0.28;100.00;95645.59;2068020;28;20196;-62
2022/04/09 03:30:21;;;;;;;10.98;7.50;;;;;;;-0.34;100.00;95634.72;2069722;28;20226;-62
2022/04/09 03:31:22;;;;;;;12.07;7.55;;;;;;;-0.30;100.00;95655.09;2068802;28;20219;-62
2022/04/09 03:32:24;;;;;;;13.27;7.03;;;;;;;-0.25;100.00;95657.50;2069905;28;20200;-62
2022/04/09 03:33:26;;;;;;;14.82;8.13;;;;;;;-0.33;100.00;95657.81;2068329;28;20207;-62
2022/04/09 03:34:28;;;;;;;13.57;7.72;;;;;;;-0.33;100.00;95662.97;2068859;28;20203;-62
2022/04/09 03:35:29;;;;;;;15.82;8.70;;;;;;;-0.33;100.00;95665.53;2069342;28;20232;-62
2022/04/09 03:36:31;;;;;;;12.77;8.63;;;;;;;-0.39;100.00;95668.38;2070818;28;20207;-62
2022/04/09 03:37:38;;;;;;;16.00;8.90;;;;;;;-0.30;100.00;95685.16;2071190;28;20210;-62
2022/04/09 03:38:41;;;;;;;10.65;7.00;;;;;;;-0.30;100.00;95677.44;2069869;28;20198;-62
2022/04/09 03:39:43;;;;;;;16.63;8.40;;;;;;;-0.46;100.00;95666.94;2068861;28;20245;-61
2022/04/09 03:40:45;;;;;;;12.98;8.50;;;;;;;-0.33;100.00;95680.97;2068442;28;20286;-60
2022/04/09 03:41:46;;;;;;;12.13;8.48;;;;;;;-0.32;100.00;95685.22;2069047;28;20562;-61
2022/04/09 03:43:08;;;;;;;19.08;9.30;;;;;;;-0.40;100.00;95687.25;2070501;28;20200;-61
2022/04/09 03:44:10;;;;;;;13.52;8.88;;;;;;;-0.33;100.00;95691.28;2076947;28;20200;-62
2022/04/09 03:45:11;;;;;;;19.15;9.60;;;;;;;-0.36;100.00;95695.69;2074986;28;20211;-62
2022/04/09 03:46:13;;;;;;;18.70;9.20;;;;;;;-0.35;100.00;95698.22;2066749;28;20202;-62
2022/04/09 03:47:14;;;;;;;23.10;9.55;;;;;;;-0.40;100.00;95695.81;2068857;28;20669;-61
2022/04/09 03:48:16;;;;;;;14.85;9.10;;;;;;;-0.40;100.00;95707.84;2071124;28;20206;-62
2022/04/09 03:49:17;;;;;;;13.43;8.60;;;;;;;-0.50;100.00;95689.34;2067974;28;20208;-62
2022/04/09 03:50:20;;;;;;;13.82;8.80;;;;;;;-0.41;100.00;95701.88;2066515;28;20227;-62
2022/04/09 03:51:21;;;;;;;18.67;9.93;;;;;;;-0.50;100.00;95701.41;2068568;28;20634;-62
2022/04/09 03:52:22;;;;;;;18.15;9.57;;;;;;;-0.56;100.00;95691.34;2069295;28;20204;-62
2022/04/09 03:53:24;;;;;;;26.63;10.85;;;;;;;-0.43;100.00;95707.97;2068887;28;20325;-62
2022/04/09 03:54:26;;;;;;;13.93;9.73;;;;;;;-0.47;100.00;95712.41;2066700;28;20224;-61
2022/04/09 03:55:29;;;;;;;14.23;8.93;;;;;;;-0.41;100.00;95711.34;2068325;28;20220;-61
2022/04/09 03:56:30;;;;;;;16.25;9.23;;;;;;;-0.42;100.00;95719.94;2077166;28;20774;-61
2022/04/09 03:57:32;;;;;;;14.13;8.52;;;;;;;-0.44;100.00;95724.31;2072668;28;20211;-61
2022/04/09 03:58:36;;;;;;;25.60;9.88;;;;;;;-0.48;100.00;95725.31;2069174;28;20205;-62
2022/04/09 03:59:38;;;;;;;15.23;9.10;;;;;;;-0.49;100.00;95724.50;2068788;28;20201;-62
2022/04/09 04:00:39;;;;;;;14.35;8.85;;;;;;;-0.42;100.00;95737.94;2068510;28;20227;-61
2022/04/09 04:01:43;;;;;;;19.33;10.60;;;;;;;-0.43;100.00;95731.13;2068017;28;20197;-61
2022/04/09 04:02:45;;;;;;;22.52;10.80;;;;;;;-0.48;100.00;95730.47;2067976;28;20298;-61
2022/04/09 04:03:47;;;;;;;17.50;10.50;;;;;;;-0.56;100.00;95709.34;2071570;28;20635;-61
2022/04/09 04:04:48;;;;;;;23.60;10.10;;;;;;;-0.50;100.00;95734.84;2071196;28;20221;-61
2022/04/09 04:05:50;;;;;;;13.40;9.13;;;;;;;-0.47;100.00;95734.69;2065201;28;20215;-61
2022/04/09 04:06:51;;;;;;;19.55;9.65;;;;;;;-0.43;100.00;95744.84;2078521;28;20230;-61
2022/04/09 04:07:53;;;;;;;19.70;10.65;;;;;;;-0.68;100.00;95708.09;2079570;28;20199;-61
2022/04/09 04:08:57;;;;;;;16.05;9.27;;;;;;;-0.42;100.00;95753.38;2069066;28;20874;-61
2022/04/09 04:10:10;;;;;;;21.80;9.18;;;;;;;-0.57;100.00;95741.09;2077652;28;20213;-62
2022/04/09 04:11:11;;;;;;;19.38;9.73;;;;;;;-0.50;100.00;95743.38;2076175;28;20201;-61
2022/04/09 04:12:12;;;;;;;15.55;10.05;;;;;;;-0.60;100.00;95737.75;2067735;28;20197;-61
2022/04/09 04:13:14;;;;;;;25.17;11.35;;;;;;;-0.50;100.00;95748.53;2068481;28;20206;-61
2022/04/09 04:14:15;;;;;;;13.93;9.40;;;;;;;-0.50;100.00;95752.84;2067714;28;20591;-61
2022/04/09 04:15:17;;;;;;;20.02;10.15;;;;;;;-0.50;100.00;95752.84;2067693;28;20218;-61
2022/04/09 04:16:18;;;;;;;16.25;8.98;;;;;;;-0.51;100.00;95756.31;2067902;28;20223;-61
2022/04/09 04:17:20;;;;;;;15.27;9.32;;;;;;;-0.57;100.00;95735.97;2069078;28;20205;-61
2022/04/09 04:18:21;;;;;;;17.83;10.88;;;;;;;-0.55;100.00;95749.59;2067777;28;20681;-61
2022/04/09 04:19:23;;;;;;;15.93;9.65;;;;;;;-0.53;100.00;95758.09;2069942;28;20222;-61
2022/04/09 04:20:25;;;;;;;20.15;10.32;;;;;;;-0.58;100.00;95749.72;2076039;28;20305;-61
2022/04/09 04:21:27;;;;;;;17.38;9.80;;;;;;;-0.58;100.00;95762.59;2073653;28;20211;-61
2022/04/09 04:22:28;;;;;;;13.93;9.10;;;;;;;-0.60;100.00;95762.66;2071317;28;20554;-61
2022/04/09 04:23:30;;;;;;;17.90;10.10;;;;;;;-0.67;100.00;95767.16;2071487;28;20746;-60
2022/04/09 04:24:31;;;;;;;16.50;9.23;;;;;;;-0.64;100.00;95763.66;2067837;28;20212;-61
2022/04/09 04:25:33;;;;;;;14.93;9.98;;;;;;;-0.64;100.00;95769.63;2067016;28;20271;-60
2022/04/09 04:26:34;;;;;;;20.50;9.50;;;;;;;-0.62;100.00;95765.28;2068431;28;20535;-60
2022/04/09 04:27:43;;;;;;;15.57;8.90;;;;;;;-0.64;100.00;95773.94;2068489;28;20209;-61
2022/04/09 04:28:51;;;;;;;18.50;10.02;;;;;;;-0.68;100.00;95780.94;2068577;28;20550;-60
2022/04/09 04:29:57;;;;;;;16.95;10.02;;;;;;;-0.77;100.00;95760.69;2068015;28;20206;-60
2022/04/09 04:30:59;;;;;;;20.02;10.30;;;;;;;-0.70;100.00;95775.00;2068048;28;20577;-61
2022/04/09 04:32:01;;;;;;;19.35;9.32;;;;;;;-0.71;100.00;95777.63;2068968;28;20304;-61
2022/04/09 04:33:02;;;;;;;11.40;7.85;;;;;;;-0.71;100.00;95775.91;2073808;28;20202;-60
2022/04/09 04:34:05;;;;;;;15.27;9.13;;;;;;;-0.71;100.00;95781.03;2075211;28;20796;-60
2022/04/09 04:35:07;;;;;;;19.98;9.70;;;;;;;-0.88;100.00;95758.53;2067443;28;20207;-60
2022/04/09 04:36:09;;;;;;;12.75;8.90;;;;;;;-0.71;100.00;95786.19;2067644;28;20192;-61
2022/04/09 04:37:10;;;;;;;14.80;8.13;;;;;;;-0.72;100.00;95791.41;2067792;28;20202;-60
2022/04/09 04:38:12;;;;;;;17.52;9.13;;;;;;;-0.82;100.00;95775.47;2069217;28;20605;-61
2022/04/09 04:39:14;;;;;;;15.40;9.85;;;;;;;-0.72;100.00;95787.09;2067452;28;20321;-61
2022/04/09 04:40:16;;;;;;;13.95;8.45;;;;;;;-0.73;100.00;95795.69;2068676;28;20223;-60
2022/04/09 04:41:17;;;;;;;18.67;9.30;;;;;;;-0.75;100.00;95797.47;2068463;28;20654;-61
2022/04/09 04:42:18;;;;;;;14.55;9.18;;;;;;;-0.76;100.00;95803.53;2070162;28;20704;-61
2022/04/09 04:43:20;;;;;;;13.80;9.30;;;;;;;-0.75;100.00;95805.19;2068592;28;20199;-60
2022/04/09 04:44:21;;;;;;;11.23;8.07;;;;;;;-0.75;100.00;95805.19;2068317;28;20842;-61
2022/04/09 04:45:23;;;;;;;11.25;7.85;;;;;;;-0.80;100.00;95801.97;2068068;28;20713;-61
2022/04/09 04:46:25;;;;;;;22.40;10.52;;;;;;;-0.92;100.00;95786.97;2068566;28;20203;-61
2022/04/09 04:47:26;;;;;;;16.58;9.27;;;;;;;-0.78;100.00;95809.59;2068948;28;20331;-60
2022/04/09 04:48:28;;;;;;;14.43;9.55;;;;;;;-0.72;100.00;95817.94;2070311;28;20203;-61
2022/04/09 04:49:29;;;;;;;19.95;9.75;;;;;;;-0.73;100.00;95816.25;2066001;28;20204;-61